sim
Sign-in with your pilot id or email,
or register
Callsign
Passwort

Schedule Details

Flight Number: DLH2397 (1)
Departure: Basel Mulhouse-Freiburg EuroAirport (LFSB) at 12:00
Arrival: Munich Airport (EDDM) at 13:00
Route: Lufthansa Passenger Schedule. Enter filed route here before submitting Pirep.

Weather Information
Getting current METAR information for LFSB 260100Z AUTO 26012KT 9999 FEW014/// SCT044/// BKN056/// ///TCU 09/07 Q1006 BECMG FEW030 BKN050
Getting current METAR information for EDDM 260120Z 25012KT 9999 -RA BKN014 07/06 Q1000 NOSIG

Schedule Frequency

Route Map